sensor_id;sensor_type;location;lat;lon;timestamp;pressure;altitude;pressure_sealevel;temperature;humidity
7768;BME280;3928;42.626;23.382;2023-05-16T00:01:08;93892.72;;;17.62;87.30
7768;BME280;3928;42.626;23.382;2023-05-16T00:03:35;93872.22;;;17.57;87.27
7768;BME280;3928;42.626;23.382;2023-05-16T00:06:02;93874.44;;;17.65;86.96
7768;BME280;3928;42.626;23.382;2023-05-16T00:08:29;93875.59;;;17.76;86.44
7768;BME280;3928;42.626;23.382;2023-05-16T00:10:57;93875.97;;;17.69;86.70
7768;BME280;3928;42.626;23.382;2023-05-16T00:13:24;93874.88;;;17.73;86.84
7768;BME280;3928;42.626;23.382;2023-05-16T00:15:51;93846.19;;;17.59;86.56
7768;BME280;3928;42.626;23.382;2023-05-16T00:18:19;93867.19;;;17.71;86.53
7768;BME280;3928;42.626;23.382;2023-05-16T00:20:46;93880.66;;;17.61;87.04
7768;BME280;3928;42.626;23.382;2023-05-16T00:23:13;93864.81;;;17.49;87.20
7768;BME280;3928;42.626;23.382;2023-05-16T00:25:41;93875.81;;;17.54;87.38
7768;BME280;3928;42.626;23.382;2023-05-16T00:28:09;93871.06;;;17.45;87.54
7768;BME280;3928;42.626;23.382;2023-05-16T00:30:36;93873.59;;;17.47;87.43
7768;BME280;3928;42.626;23.382;2023-05-16T00:33:03;93874.66;;;17.43;87.81
7768;BME280;3928;42.626;23.382;2023-05-16T00:35:30;93869.69;;;17.38;88.29
7768;BME280;3928;42.626;23.382;2023-05-16T00:37:57;93867.94;;;17.39;88.08
7768;BME280;3928;42.626;23.382;2023-05-16T00:40:24;93864.34;;;17.24;88.66
7768;BME280;3928;42.626;23.382;2023-05-16T00:42:51;93861.00;;;17.22;88.96
7768;BME280;3928;42.626;23.382;2023-05-16T00:45:19;93862.81;;;17.37;88.45
7768;BME280;3928;42.626;23.382;2023-05-16T00:47:46;93848.59;;;17.29;88.44
7768;BME280;3928;42.626;23.382;2023-05-16T00:50:13;93850.03;;;17.17;89.48
7768;BME280;3928;42.626;23.382;2023-05-16T00:52:40;93827.34;;;17.03;89.71
7768;BME280;3928;42.626;23.382;2023-05-16T00:55:08;93826.22;;;17.09;89.58
7768;BME280;3928;42.626;23.382;2023-05-16T00:57:35;93842.69;;;17.08;90.21
7768;BME280;3928;42.626;23.382;2023-05-16T01:00:03;93816.09;;;16.68;91.54
7768;BME280;3928;42.626;23.382;2023-05-16T01:02:33;93843.69;;;16.69;92.38
7768;BME280;3928;42.626;23.382;2023-05-16T01:05:00;93826.19;;;16.55;93.02
7768;BME280;3928;42.626;23.382;2023-05-16T01:07:29;93837.53;;;16.72;92.91
7768;BME280;3928;42.626;23.382;2023-05-16T01:09:57;93835.28;;;16.83;92.25
7768;BME280;3928;42.626;23.382;2023-05-16T01:12:29;93834.97;;;16.89;91.87
7768;BME280;3928;42.626;23.382;2023-05-16T01:15:05;93820.09;;;16.75;92.11
7768;BME280;3928;42.626;23.382;2023-05-16T01:17:44;93824.06;;;16.82;92.25
7768;BME280;3928;42.626;23.382;2023-05-16T01:20:27;93830.69;;;16.88;91.96
7768;BME280;3928;42.626;23.382;2023-05-16T01:23:11;93823.22;;;16.82;91.95
7768;BME280;3928;42.626;23.382;2023-05-16T01:25:54;93823.06;;;16.85;92.11
7768;BME280;3928;42.626;23.382;2023-05-16T01:28:24;93827.50;;;16.83;91.79
7768;BME280;3928;42.626;23.382;2023-05-16T01:30:51;93810.19;;;16.83;91.60
7768;BME280;3928;42.626;23.382;2023-05-16T01:33:18;93810.72;;;16.90;91.70
7768;BME280;3928;42.626;23.382;2023-05-16T01:35:52;93798.53;;;16.75;91.97
7768;BME280;3928;42.626;23.382;2023-05-16T01:38:25;93803.19;;;16.85;91.93
7768;BME280;3928;42.626;23.382;2023-05-16T01:40:54;93794.94;;;16.77;91.81
7768;BME280;3928;42.626;23.382;2023-05-16T01:43:29;93779.44;;;16.40;93.83
7768;BME280;3928;42.626;23.382;2023-05-16T01:46:02;93787.41;;;16.54;93.79
7768;BME280;3928;42.626;23.382;2023-05-16T01:48:35;93776.50;;;16.47;94.01
7768;BME280;3928;42.626;23.382;2023-05-16T01:51:05;93789.06;;;16.37;94.73
7768;BME280;3928;42.626;23.382;2023-05-16T01:53:36;93772.53;;;16.21;95.47
7768;BME280;3928;42.626;23.382;2023-05-16T01:56:06;93785.38;;;16.42;94.82
7768;BME280;3928;42.626;23.382;2023-05-16T01:58:36;93779.84;;;16.49;94.08
7768;BME280;3928;42.626;23.382;2023-05-16T02:01:04;93734.69;;;16.19;93.70
7768;BME280;3928;42.626;23.382;2023-05-16T02:03:31;93791.06;;;16.67;92.92
7768;BME280;3928;42.626;23.382;2023-05-16T02:22:24;93753.97;;;16.49;95.40
7768;BME280;3928;42.626;23.382;2023-05-16T02:24:51;93769.59;;;16.65;94.58
7768;BME280;3928;42.626;23.382;2023-05-16T02:27:18;93767.06;;;16.63;94.09
7768;BME280;3928;42.626;23.382;2023-05-16T02:29:45;93750.69;;;16.46;94.40
7768;BME280;3928;42.626;23.382;2023-05-16T02:32:11;93770.75;;;16.59;94.22
7768;BME280;3928;42.626;23.382;2023-05-16T02:34:38;93764.16;;;16.52;94.46
7768;BME280;3928;42.626;23.382;2023-05-16T02:37:05;93768.34;;;16.55;94.29
7768;BME280;3928;42.626;23.382;2023-05-16T02:39:33;93753.00;;;16.33;94.56
7768;BME280;3928;42.626;23.382;2023-05-16T02:42:00;93779.63;;;16.54;94.79
7768;BME280;3928;42.626;23.382;2023-05-16T02:44:27;93767.91;;;16.47;94.71
7768;BME280;3928;42.626;23.382;2023-05-16T02:46:53;93767.66;;;16.51;94.94
7768;BME280;3928;42.626;23.382;2023-05-16T02:49:20;93761.09;;;16.44;94.54
7768;BME280;3928;42.626;23.382;2023-05-16T02:51:47;93762.09;;;16.42;95.20
7768;BME280;3928;42.626;23.382;2023-05-16T02:54:14;93758.31;;;16.49;94.93
7768;BME280;3928;42.626;23.382;2023-05-16T02:56:42;93757.31;;;16.51;94.78
7768;BME280;3928;42.626;23.382;2023-05-16T02:59:10;93743.63;;;16.30;95.54
7768;BME280;3928;42.626;23.382;2023-05-16T03:01:37;93748.53;;;16.36;95.49
7768;BME280;3928;42.626;23.382;2023-05-16T03:04:04;93757.13;;;16.01;97.64
7768;BME280;3928;42.626;23.382;2023-05-16T03:06:31;93757.22;;;15.98;97.73
7768;BME280;3928;42.626;23.382;2023-05-16T03:08:58;93756.19;;;16.02;97.57
7768;BME280;3928;42.626;23.382;2023-05-16T03:11:25;93751.72;;;16.05;97.40
7768;BME280;3928;42.626;23.382;2023-05-16T03:13:54;93761.72;;;16.13;97.51
7768;BME280;3928;42.626;23.382;2023-05-16T03:16:23;93762.56;;;15.95;97.78
7768;BME280;3928;42.626;23.382;2023-05-16T03:18:50;93763.13;;;15.83;99.16
7768;BME280;3928;42.626;23.382;2023-05-16T03:21:17;93772.28;;;15.90;98.68
7768;BME280;3928;42.626;23.382;2023-05-16T03:23:43;93755.50;;;15.79;99.02
7768;BME280;3928;42.626;23.382;2023-05-16T03:26:10;93755.09;;;15.89;98.55
7768;BME280;3928;42.626;23.382;2023-05-16T03:28:37;93761.94;;;15.90;98.55
7768;BME280;3928;42.626;23.382;2023-05-16T03:31:05;93754.09;;;15.91;98.27
7768;BME280;3928;42.626;23.382;2023-05-16T03:33:32;93759.31;;;16.08;97.75
7768;BME280;3928;42.626;23.382;2023-05-16T03:35:58;93750.38;;;15.97;98.13
7768;BME280;3928;42.626;23.382;2023-05-16T03:38:25;93756.41;;;16.16;97.46
7768;BME280;3928;42.626;23.382;2023-05-16T03:40:52;93752.75;;;16.20;96.63
7768;BME280;3928;42.626;23.382;2023-05-16T03:43:19;93746.63;;;16.04;97.49
7768;BME280;3928;42.626;23.382;2023-05-16T03:45:46;93754.38;;;16.04;97.88
7768;BME280;3928;42.626;23.382;2023-05-16T03:48:14;93761.72;;;16.13;97.30
7768;BME280;3928;42.626;23.382;2023-05-16T03:50:41;93765.22;;;16.12;97.03
7768;BME280;3928;42.626;23.382;2023-05-16T03:53:08;93765.56;;;16.23;96.75
7768;BME280;3928;42.626;23.382;2023-05-16T03:55:35;93760.44;;;16.22;96.60
7768;BME280;3928;42.626;23.382;2023-05-16T03:58:02;93758.75;;;16.21;96.30
7768;BME280;3928;42.626;23.382;2023-05-16T04:00:28;93759.47;;;16.05;97.58
7768;BME280;3928;42.626;23.382;2023-05-16T04:02:55;93761.16;;;16.25;96.65
7768;BME280;3928;42.626;23.382;2023-05-16T04:05:24;93763.66;;;16.27;96.23
7768;BME280;3928;42.626;23.382;2023-05-16T04:07:50;93766.41;;;16.24;96.33
7768;BME280;3928;42.626;23.382;2023-05-16T04:10:17;93745.19;;;16.16;96.47
7768;BME280;3928;42.626;23.382;2023-05-16T04:12:44;93777.63;;;16.42;95.73
7768;BME280;3928;42.626;23.382;2023-05-16T04:15:11;93770.16;;;16.35;96.18
7768;BME280;3928;42.626;23.382;2023-05-16T04:17:37;93774.28;;;16.40;95.59
7768;BME280;3928;42.626;23.382;2023-05-16T04:20:05;93778.25;;;16.47;95.52
7768;BME280;3928;42.626;23.382;2023-05-16T04:22:34;93776.03;;;16.56;96.50
7768;BME280;3928;42.626;23.382;2023-05-16T04:25:00;93774.28;;;16.57;97.14
7768;BME280;3928;42.626;23.382;2023-05-16T04:27:27;93759.16;;;16.66;96.76
7768;BME280;3928;42.626;23.382;2023-05-16T04:29:55;93763.84;;;16.77;94.18
7768;BME280;3928;42.626;23.382;2023-05-16T04:32:21;93760.03;;;16.84;96.53
7768;BME280;3928;42.626;23.382;2023-05-16T04:34:48;93754.56;;;17.08;95.02
7768;BME280;3928;42.626;23.382;2023-05-16T04:37:17;93739.66;;;17.29;94.75
7768;BME280;3928;42.626;23.382;2023-05-16T04:39:46;93741.19;;;17.48;91.81
7768;BME280;3928;42.626;23.382;2023-05-16T04:42:13;93750.75;;;17.64;90.33
7768;BME280;3928;42.626;23.382;2023-05-16T04:44:40;93752.75;;;17.43;88.93
7768;BME280;3928;42.626;23.382;2023-05-16T04:47:08;93751.03;;;17.09;90.48
7768;BME280;3928;42.626;23.382;2023-05-16T04:49:35;93759.81;;;17.06;90.81
7768;BME280;3928;42.626;23.382;2023-05-16T04:52:02;93756.09;;;16.94;91.87
7768;BME280;3928;42.626;23.382;2023-05-16T04:54:29;93754.00;;;17.18;91.69
7768;BME280;3928;42.626;23.382;2023-05-16T04:56:57;93752.53;;;17.30;90.63
7768;BME280;3928;42.626;23.382;2023-05-16T04:59:24;93754.63;;;17.39;89.96
7768;BME280;3928;42.626;23.382;2023-05-16T05:01:50;93746.56;;;17.45;89.31
7768;BME280;3928;42.626;23.382;2023-05-16T05:04:17;93749.72;;;17.50;88.59
7768;BME280;3928;42.626;23.382;2023-05-16T05:06:44;93760.44;;;17.44;89.42
7768;BME280;3928;42.626;23.382;2023-05-16T05:09:29;93756.34;;;17.23;89.37
7768;BME280;3928;42.626;23.382;2023-05-16T05:11:57;93711.50;;;16.71;90.85
7768;BME280;3928;42.626;23.382;2023-05-16T05:14:24;93768.25;;;16.92;91.08
7768;BME280;3928;42.626;23.382;2023-05-16T05:16:51;93756.22;;;16.91;91.97
7768;BME280;3928;42.626;23.382;2023-05-16T05:19:18;93758.09;;;17.22;91.77
7768;BME280;3928;42.626;23.382;2023-05-16T05:21:44;93764.91;;;17.08;90.00
7768;BME280;3928;42.626;23.382;2023-05-16T05:24:11;93754.09;;;17.00;90.48
7768;BME280;3928;42.626;23.382;2023-05-16T05:26:38;93763.47;;;17.02;90.71
7768;BME280;3928;42.626;23.382;2023-05-16T05:29:06;93762.22;;;16.92;91.11
7768;BME280;3928;42.626;23.382;2023-05-16T05:31:33;93757.38;;;16.86;91.48
7768;BME280;3928;42.626;23.382;2023-05-16T05:34:01;93746.47;;;16.97;90.65
7768;BME280;3928;42.626;23.382;2023-05-16T05:36:28;93745.72;;;16.94;90.78
7768;BME280;3928;42.626;23.382;2023-05-16T05:38:55;93745.63;;;16.96;90.90
7768;BME280;3928;42.626;23.382;2023-05-16T05:41:22;93748.59;;;16.88;90.78
7768;BME280;3928;42.626;23.382;2023-05-16T05:43:48;93751.97;;;16.73;91.98
7768;BME280;3928;42.626;23.382;2023-05-16T05:46:17;93744.13;;;16.56;92.84
7768;BME280;3928;42.626;23.382;2023-05-16T05:48:44;93740.97;;;16.68;92.44
7768;BME280;3928;42.626;23.382;2023-05-16T05:51:10;93747.78;;;16.52;93.54
7768;BME280;3928;42.626;23.382;2023-05-16T05:53:38;93750.28;;;16.72;92.20
7768;BME280;3928;42.626;23.382;2023-05-16T05:56:05;93740.63;;;16.57;93.51
7768;BME280;3928;42.626;23.382;2023-05-16T05:58:32;93742.38;;;16.56;93.44
7768;BME280;3928;42.626;23.382;2023-05-16T06:00:59;93734.31;;;16.62;92.70
7768;BME280;3928;42.626;23.382;2023-05-16T06:03:28;93743.09;;;16.77;92.43
7768;BME280;3928;42.626;23.382;2023-05-16T06:05:55;93736.63;;;16.86;91.93
7768;BME280;3928;42.626;23.382;2023-05-16T06:08:21;93745.41;;;17.01;91.38
7768;BME280;3928;42.626;23.382;2023-05-16T06:10:48;93744.50;;;16.84;91.45
7768;BME280;3928;42.626;23.382;2023-05-16T06:13:15;93756.38;;;16.71;92.36
7768;BME280;3928;42.626;23.382;2023-05-16T06:15:41;93744.53;;;16.65;92.74
7768;BME280;3928;42.626;23.382;2023-05-16T06:18:08;93748.03;;;16.47;94.47
7768;BME280;3928;42.626;23.382;2023-05-16T06:20:36;93749.38;;;16.37;94.56
7768;BME280;3928;42.626;23.382;2023-05-16T06:23:03;93754.97;;;16.64;93.89
7768;BME280;3928;42.626;23.382;2023-05-16T06:25:30;93759.09;;;16.68;92.92
7768;BME280;3928;42.626;23.382;2023-05-16T06:27:57;93760.19;;;16.81;92.40
7768;BME280;3928;42.626;23.382;2023-05-16T06:30:23;93758.88;;;16.90;92.00
7768;BME280;3928;42.626;23.382;2023-05-16T06:32:50;93740.84;;;16.71;92.37
7768;BME280;3928;42.626;23.382;2023-05-16T06:35:17;93735.34;;;16.94;91.90
7768;BME280;3928;42.626;23.382;2023-05-16T06:37:45;93742.00;;;17.16;90.80
7768;BME280;3928;42.626;23.382;2023-05-16T06:40:12;93750.41;;;17.21;90.29
7768;BME280;3928;42.626;23.382;2023-05-16T06:42:39;93754.50;;;17.25;90.07
7768;BME280;3928;42.626;23.382;2023-05-16T06:45:07;93746.53;;;17.30;89.82
7768;BME280;3928;42.626;23.382;2023-05-16T06:47:34;93734.59;;;17.25;89.74
7768;BME280;3928;42.626;23.382;2023-05-16T06:50:01;93743.97;;;17.28;90.14
7768;BME280;3928;42.626;23.382;2023-05-16T06:52:29;93732.84;;;17.26;89.74
7768;BME280;3928;42.626;23.382;2023-05-16T06:54:57;93697.81;;;17.19;89.01
7768;BME280;3928;42.626;23.382;2023-05-16T06:57:23;93729.47;;;17.41;88.84
7768;BME280;3928;42.626;23.382;2023-05-16T06:59:50;93685.19;;;16.78;90.51
7768;BME280;3928;42.626;23.382;2023-05-16T07:02:17;93733.81;;;16.90;91.43
7768;BME280;3928;42.626;23.382;2023-05-16T07:04:44;93735.47;;;17.09;90.71
7768;BME280;3928;42.626;23.382;2023-05-16T07:07:11;93723.88;;;17.16;90.34
7768;BME280;3928;42.626;23.382;2023-05-16T07:09:38;93725.63;;;17.15;90.43
7768;BME280;3928;42.626;23.382;2023-05-16T07:12:06;93736.69;;;17.02;90.97
7768;BME280;3928;42.626;23.382;2023-05-16T07:14:33;93723.88;;;17.16;90.81
7768;BME280;3928;42.626;23.382;2023-05-16T07:17:03;93717.75;;;17.34;89.49
7768;BME280;3928;42.626;23.382;2023-05-16T07:19:33;93709.72;;;17.39;89.64
7768;BME280;3928;42.626;23.382;2023-05-16T07:22:00;93692.25;;;17.42;89.70
7768;BME280;3928;42.626;23.382;2023-05-16T07:24:27;93690.72;;;17.38;89.18
7768;BME280;3928;42.626;23.382;2023-05-16T07:26:53;93674.66;;;17.32;89.27
7768;BME280;3928;42.626;23.382;2023-05-16T07:29:22;93673.47;;;17.37;89.11
7768;BME280;3928;42.626;23.382;2023-05-16T07:31:48;93698.19;;;17.44;88.38
7768;BME280;3928;42.626;23.382;2023-05-16T07:34:15;93698.91;;;17.31;89.76
7768;BME280;3928;42.626;23.382;2023-05-16T07:36:42;93698.63;;;17.52;88.76
7768;BME280;3928;42.626;23.382;2023-05-16T07:39:09;93689.00;;;17.54;87.87
7768;BME280;3928;42.626;23.382;2023-05-16T07:41:35;93703.09;;;17.33;89.56
7768;BME280;3928;42.626;23.382;2023-05-16T07:44:02;93711.75;;;17.49;88.46
7768;BME280;3928;42.626;23.382;2023-05-16T07:46:30;93713.91;;;17.41;88.86
7768;BME280;3928;42.626;23.382;2023-05-16T07:48:57;93715.50;;;17.77;87.42
7768;BME280;3928;42.626;23.382;2023-05-16T07:51:24;93692.22;;;17.75;86.48
7768;BME280;3928;42.626;23.382;2023-05-16T07:53:51;93703.94;;;17.82;86.12
7768;BME280;3928;42.626;23.382;2023-05-16T07:56:18;93706.63;;;17.97;85.57
7768;BME280;3928;42.626;23.382;2023-05-16T07:58:45;93710.66;;;18.18;85.54
7768;BME280;3928;42.626;23.382;2023-05-16T08:01:13;93714.44;;;18.13;85.56
7768;BME280;3928;42.626;23.382;2023-05-16T08:03:41;93710.13;;;18.27;84.27
7768;BME280;3928;42.626;23.382;2023-05-16T08:06:08;93703.94;;;18.30;83.93
7768;BME280;3928;42.626;23.382;2023-05-16T08:08:35;93693.34;;;18.49;83.92
7768;BME280;3928;42.626;23.382;2023-05-16T08:11:02;93689.22;;;18.60;83.31
7768;BME280;3928;42.626;23.382;2023-05-16T08:13:30;93683.25;;;18.74;82.43
7768;BME280;3928;42.626;23.382;2023-05-16T08:15:57;93669.34;;;18.59;81.43
7768;BME280;3928;42.626;23.382;2023-05-16T08:18:24;93676.78;;;18.20;83.28
7768;BME280;3928;42.626;23.382;2023-05-16T08:20:52;93686.34;;;18.19;83.67
7768;BME280;3928;42.626;23.382;2023-05-16T08:23:19;93667.75;;;18.27;83.64
7768;BME280;3928;42.626;23.382;2023-05-16T08:25:46;93671.34;;;18.08;83.12
7768;BME280;3928;42.626;23.382;2023-05-16T08:28:13;93677.06;;;17.99;84.01
7768;BME280;3928;42.626;23.382;2023-05-16T08:30:40;93683.03;;;18.01;84.39
7768;BME280;3928;42.626;23.382;2023-05-16T08:33:07;93641.13;;;17.60;84.57
7768;BME280;3928;42.626;23.382;2023-05-16T08:35:34;93679.16;;;18.24;83.21
7768;BME280;3928;42.626;23.382;2023-05-16T08:38:02;93691.00;;;18.44;82.63
7768;BME280;3928;42.626;23.382;2023-05-16T08:40:29;93690.03;;;18.15;83.46
7768;BME280;3928;42.626;23.382;2023-05-16T08:42:56;93677.16;;;18.14;83.21
7768;BME280;3928;42.626;23.382;2023-05-16T08:45:23;93691.31;;;18.24;82.73
7768;BME280;3928;42.626;23.382;2023-05-16T08:47:53;93689.59;;;18.38;81.91
7768;BME280;3928;42.626;23.382;2023-05-16T08:50:21;93681.84;;;18.53;80.89
7768;BME280;3928;42.626;23.382;2023-05-16T08:52:50;93685.16;;;18.70;79.01
7768;BME280;3928;42.626;23.382;2023-05-16T08:55:20;93681.91;;;18.97;78.09
7768;BME280;3928;42.626;23.382;2023-05-16T08:57:49;93659.03;;;19.02;77.07
7768;BME280;3928;42.626;23.382;2023-05-16T09:00:17;93693.69;;;19.03;77.66
7768;BME280;3928;42.626;23.382;2023-05-16T09:02:44;93676.16;;;19.20;76.34
7768;BME280;3928;42.626;23.382;2023-05-16T09:05:13;93684.03;;;19.05;77.54
7768;BME280;3928;42.626;23.382;2023-05-16T09:07:40;93643.06;;;18.94;77.32
7768;BME280;3928;42.626;23.382;2023-05-16T09:10:08;93683.50;;;19.14;77.03
7768;BME280;3928;42.626;23.382;2023-05-16T09:12:37;93669.66;;;19.27;77.05
7768;BME280;3928;42.626;23.382;2023-05-16T09:15:06;93638.81;;;19.07;76.42
7768;BME280;3928;42.626;23.382;2023-05-16T09:17:34;93675.78;;;18.98;77.88
7768;BME280;3928;42.626;23.382;2023-05-16T09:20:07;93677.06;;;19.05;77.69
7768;BME280;3928;42.626;23.382;2023-05-16T09:22:34;93669.44;;;18.88;78.52
7768;BME280;3928;42.626;23.382;2023-05-16T09:25:01;93671.63;;;18.80;79.00
7768;BME280;3928;42.626;23.382;2023-05-16T09:27:30;93673.81;;;18.87;78.78
7768;BME280;3928;42.626;23.382;2023-05-16T09:29:58;93669.25;;;18.91;78.86
7768;BME280;3928;42.626;23.382;2023-05-16T09:32:25;93677.13;;;18.89;78.25
7768;BME280;3928;42.626;23.382;2023-05-16T09:34:53;93679.28;;;18.83;78.72
7768;BME280;3928;42.626;23.382;2023-05-16T09:37:22;93670.78;;;19.23;77.44
7768;BME280;3928;42.626;23.382;2023-05-16T09:39:51;93662.38;;;19.04;78.17
7768;BME280;3928;42.626;23.382;2023-05-16T09:42:20;93684.31;;;19.28;77.46
7768;BME280;3928;42.626;23.382;2023-05-16T09:44:48;93677.75;;;19.23;77.79
7768;BME280;3928;42.626;23.382;2023-05-16T09:47:17;93678.19;;;19.29;77.57
7768;BME280;3928;42.626;23.382;2023-05-16T09:49:45;93665.09;;;19.45;76.78
7768;BME280;3928;42.626;23.382;2023-05-16T09:52:13;93671.25;;;19.59;76.33
7768;BME280;3928;42.626;23.382;2023-05-16T09:54:41;93670.97;;;19.35;77.68
7768;BME280;3928;42.626;23.382;2023-05-16T09:57:07;93663.72;;;19.54;77.59
7768;BME280;3928;42.626;23.382;2023-05-16T09:59:35;93646.97;;;19.72;77.54
7768;BME280;3928;42.626;23.382;2023-05-16T10:02:04;93669.28;;;20.18;76.39
7768;BME280;3928;42.626;23.382;2023-05-16T10:04:33;93652.75;;;20.31;74.74
7768;BME280;3928;42.626;23.382;2023-05-16T10:07:01;93649.63;;;20.26;73.63
7768;BME280;3928;42.626;23.382;2023-05-16T10:09:31;93663.91;;;20.33;72.25
7768;BME280;3928;42.626;23.382;2023-05-16T10:12:00;93664.50;;;20.24;72.83
7768;BME280;3928;42.626;23.382;2023-05-16T10:14:29;93593.97;;;20.00;72.36
7768;BME280;3928;42.626;23.382;2023-05-16T10:16:58;93654.97;;;20.37;72.87
7768;BME280;3928;42.626;23.382;2023-05-16T10:19:26;93672.59;;;20.61;72.64
7768;BME280;3928;42.626;23.382;2023-05-16T10:21:59;93655.63;;;20.81;72.06
7768;BME280;3928;42.626;23.382;2023-05-16T10:24:36;93647.41;;;20.87;71.52
7768;BME280;3928;42.626;23.382;2023-05-16T10:27:05;93643.78;;;20.50;72.03
7768;BME280;3928;42.626;23.382;2023-05-16T10:29:32;93648.84;;;20.78;71.51
7768;BME280;3928;42.626;23.382;2023-05-16T10:31:59;93639.44;;;20.63;72.02
7768;BME280;3928;42.626;23.382;2023-05-16T10:34:26;93630.97;;;20.32;71.64
7768;BME280;3928;42.626;23.382;2023-05-16T10:36:55;93617.44;;;20.27;71.16
7768;BME280;3928;42.626;23.382;2023-05-16T10:39:23;93634.13;;;20.37;71.14
7768;BME280;3928;42.626;23.382;2023-05-16T10:41:50;93625.22;;;20.00;72.14
7768;BME280;3928;42.626;23.382;2023-05-16T10:44:17;93602.06;;;20.23;72.19
7768;BME280;3928;42.626;23.382;2023-05-16T10:46:46;93588.09;;;20.51;71.84
7768;BME280;3928;42.626;23.382;2023-05-16T10:49:22;93607.00;;;20.67;72.03
7768;BME280;3928;42.626;23.382;2023-05-16T10:52:06;93608.28;;;20.99;70.87
7768;BME280;3928;42.626;23.382;2023-05-16T10:54:37;93598.75;;;21.24;70.34
7768;BME280;3928;42.626;23.382;2023-05-16T10:57:09;93607.41;;;21.50;69.09
7768;BME280;3928;42.626;23.382;2023-05-16T10:59:41;93608.97;;;21.52;67.97
7768;BME280;3928;42.626;23.382;2023-05-16T11:02:22;93600.00;;;21.06;68.13
7768;BME280;3928;42.626;23.382;2023-05-16T11:04:50;93606.00;;;21.08;67.94
7768;BME280;3928;42.626;23.382;2023-05-16T11:07:19;93583.31;;;20.70;68.35
7768;BME280;3928;42.626;23.382;2023-05-16T11:10:01;93605.00;;;20.83;68.23
7768;BME280;3928;42.626;23.382;2023-05-16T11:12:36;93607.94;;;20.66;69.29
7768;BME280;3928;42.626;23.382;2023-05-16T11:15:25;93611.59;;;20.76;69.05
7768;BME280;3928;42.626;23.382;2023-05-16T11:18:06;93594.16;;;20.64;70.04
7768;BME280;3928;42.626;23.382;2023-05-16T11:20:34;93604.06;;;20.71;69.04
7768;BME280;3928;42.626;23.382;2023-05-16T11:23:26;93613.16;;;20.79;69.11
7768;BME280;3928;42.626;23.382;2023-05-16T11:25:54;93616.81;;;21.01;68.80
7768;BME280;3928;42.626;23.382;2023-05-16T11:28:24;93603.38;;;21.08;67.88
7768;BME280;3928;42.626;23.382;2023-05-16T11:30:53;93606.09;;;21.44;67.15
7768;BME280;3928;42.626;23.382;2023-05-16T11:33:22;93614.19;;;21.52;67.12
7768;BME280;3928;42.626;23.382;2023-05-16T11:36:00;93594.56;;;21.59;66.24
7768;BME280;3928;42.626;23.382;2023-05-16T11:38:31;93598.00;;;21.60;66.00
7768;BME280;3928;42.626;23.382;2023-05-16T11:41:02;93592.13;;;21.69;66.04
7768;BME280;3928;42.626;23.382;2023-05-16T11:43:36;93610.78;;;21.76;65.82
7768;BME280;3928;42.626;23.382;2023-05-16T11:46:03;93609.13;;;21.75;65.49
7768;BME280;3928;42.626;23.382;2023-05-16T11:48:30;93599.69;;;21.85;65.27
7768;BME280;3928;42.626;23.382;2023-05-16T11:50:57;93611.38;;;21.92;64.42
7768;BME280;3928;42.626;23.382;2023-05-16T11:53:23;93608.25;;;21.87;65.32
7768;BME280;3928;42.626;23.382;2023-05-16T11:55:52;93620.25;;;21.89;65.04
7768;BME280;3928;42.626;23.382;2023-05-16T11:58:19;93606.22;;;22.03;65.40
7768;BME280;3928;42.626;23.382;2023-05-16T12:00:49;93596.59;;;22.16;65.12
7768;BME280;3928;42.626;23.382;2023-05-16T12:03:18;93584.50;;;22.27;64.23
7768;BME280;3928;42.626;23.382;2023-05-16T12:05:51;93578.25;;;22.40;64.01
7768;BME280;3928;42.626;23.382;2023-05-16T12:08:19;93569.19;;;22.68;63.13
7768;BME280;3928;42.626;23.382;2023-05-16T12:10:48;93571.56;;;22.83;62.63
7768;BME280;3928;42.626;23.382;2023-05-16T12:13:18;93579.03;;;23.00;61.73
7768;BME280;3928;42.626;23.382;2023-05-16T12:15:45;93580.69;;;23.01;60.84
7768;BME280;3928;42.626;23.382;2023-05-16T12:18:12;93577.00;;;23.03;60.67
7768;BME280;3928;42.626;23.382;2023-05-16T12:20:40;93580.00;;;23.10;59.28
7768;BME280;3928;42.626;23.382;2023-05-16T12:23:09;93577.38;;;23.21;59.54
7768;BME280;3928;42.626;23.382;2023-05-16T12:25:37;93570.22;;;23.46;58.62
7768;BME280;3928;42.626;23.382;2023-05-16T12:28:08;93571.78;;;23.48;58.28
7768;BME280;3928;42.626;23.382;2023-05-16T12:30:39;93544.75;;;23.25;58.33
7768;BME280;3928;42.626;23.382;2023-05-16T12:33:08;93566.53;;;23.15;58.99
7768;BME280;3928;42.626;23.382;2023-05-16T12:35:37;93574.75;;;23.21;59.10
7768;BME280;3928;42.626;23.382;2023-05-16T12:38:05;93555.22;;;23.14;59.67
7768;BME280;3928;42.626;23.382;2023-05-16T12:40:33;93563.34;;;23.22;58.79
7768;BME280;3928;42.626;23.382;2023-05-16T12:43:01;93560.75;;;22.76;59.43
7768;BME280;3928;42.626;23.382;2023-05-16T12:45:28;93564.91;;;22.79;59.45
7768;BME280;3928;42.626;23.382;2023-05-16T12:47:56;93554.22;;;22.82;58.40
7768;BME280;3928;42.626;23.382;2023-05-16T12:50:25;93563.66;;;22.49;58.62
7768;BME280;3928;42.626;23.382;2023-05-16T12:52:53;93568.75;;;22.39;58.44
7768;BME280;3928;42.626;23.382;2023-05-16T12:55:21;93575.03;;;22.37;59.45
7768;BME280;3928;42.626;23.382;2023-05-16T12:57:49;93566.47;;;22.35;60.16
7768;BME280;3928;42.626;23.382;2023-05-16T13:00:17;93574.34;;;22.46;59.49
7768;BME280;3928;42.626;23.382;2023-05-16T13:02:45;93561.28;;;22.46;59.74
7768;BME280;3928;42.626;23.382;2023-05-16T13:05:13;93569.81;;;22.48;59.49
7768;BME280;3928;42.626;23.382;2023-05-16T13:07:41;93572.28;;;22.62;59.11
7768;BME280;3928;42.626;23.382;2023-05-16T13:10:09;93565.38;;;22.72;59.73
7768;BME280;3928;42.626;23.382;2023-05-16T13:12:36;93576.94;;;22.81;60.31
7768;BME280;3928;42.626;23.382;2023-05-16T13:15:04;93576.38;;;22.89;61.30
7768;BME280;3928;42.626;23.382;2023-05-16T13:17:32;93585.53;;;22.94;62.95
7768;BME280;3928;42.626;23.382;2023-05-16T13:19:59;93571.16;;;22.89;63.93
7768;BME280;3928;42.626;23.382;2023-05-16T13:22:27;93559.97;;;22.87;66.64
7768;BME280;3928;42.626;23.382;2023-05-16T13:24:54;93563.06;;;22.92;64.59
7768;BME280;3928;42.626;23.382;2023-05-16T13:27:21;93561.88;;;22.96;64.79
7768;BME280;3928;42.626;23.382;2023-05-16T13:29:48;93570.94;;;23.03;63.74
7768;BME280;3928;42.626;23.382;2023-05-16T13:32:15;93554.13;;;22.94;63.33